sensor_id;sensor_type;location;lat;lon;timestamp;pressure;altitude;pressure_sealevel;temperature;humidity
61786;BME280;47692;53.714;11.372;2023-05-10T00:01:32;100486.72;;;11.42;64.19
61786;BME280;47692;53.714;11.372;2023-05-10T00:03:58;100493.66;;;11.43;64.20
61786;BME280;47692;53.714;11.372;2023-05-10T00:06:23;100481.50;;;11.42;64.37
61786;BME280;47692;53.714;11.372;2023-05-10T00:08:48;100482.44;;;11.39;64.25
61786;BME280;47692;53.714;11.372;2023-05-10T00:11:14;100478.16;;;11.37;64.62
61786;BME280;47692;53.714;11.372;2023-05-10T00:13:39;100472.16;;;11.33;64.80
61786;BME280;47692;53.714;11.372;2023-05-10T00:16:05;100474.78;;;11.33;64.64
61786;BME280;47692;53.714;11.372;2023-05-10T00:18:30;100472.22;;;11.31;64.68
61786;BME280;47692;53.714;11.372;2023-05-10T00:20:55;100473.16;;;11.29;65.17
61786;BME280;47692;53.714;11.372;2023-05-10T00:23:21;100474.13;;;11.25;64.90
61786;BME280;47692;53.714;11.372;2023-05-10T00:25:46;100473.28;;;11.24;65.09
61786;BME280;47692;53.714;11.372;2023-05-10T00:28:11;100467.25;;;11.22;65.39
61786;BME280;47692;53.714;11.372;2023-05-10T00:30:36;100460.47;;;11.17;65.78
61786;BME280;47692;53.714;11.372;2023-05-10T00:33:02;100457.88;;;11.15;65.78
61786;BME280;47692;53.714;11.372;2023-05-10T00:35:27;100459.69;;;11.13;65.59
61786;BME280;47692;53.714;11.372;2023-05-10T00:37:53;100455.44;;;11.09;65.55
61786;BME280;47692;53.714;11.372;2023-05-10T00:40:18;100451.97;;;11.08;66.28
61786;BME280;47692;53.714;11.372;2023-05-10T00:42:44;100451.97;;;11.08;66.01
61786;BME280;47692;53.714;11.372;2023-05-10T00:45:09;100447.69;;;11.06;66.26
61786;BME280;47692;53.714;11.372;2023-05-10T00:47:35;100449.59;;;11.01;66.32
61786;BME280;47692;53.714;11.372;2023-05-10T00:50:00;100447.03;;;10.99;66.74
61786;BME280;47692;53.714;11.372;2023-05-10T00:52:27;100441.03;;;10.95;66.34
61786;BME280;47692;53.714;11.372;2023-05-10T00:54:54;100436.75;;;10.93;66.54
61786;BME280;47692;53.714;11.372;2023-05-10T00:57:19;100435.88;;;10.92;66.50
61786;BME280;47692;53.714;11.372;2023-05-10T00:59:45;100436.06;;;10.86;66.91
61786;BME280;47692;53.714;11.372;2023-05-10T01:02:11;100427.50;;;10.81;67.02
61786;BME280;47692;53.714;11.372;2023-05-10T01:04:38;100437.84;;;10.84;67.50
61786;BME280;47692;53.714;11.372;2023-05-10T01:07:04;100438.06;;;10.78;67.54
61786;BME280;47692;53.714;11.372;2023-05-10T01:09:30;100430.41;;;10.72;67.28
61786;BME280;47692;53.714;11.372;2023-05-10T01:11:56;100429.56;;;10.70;67.50
61786;BME280;47692;53.714;11.372;2023-05-10T01:14:21;100425.19;;;10.70;67.76
61786;BME280;47692;53.714;11.372;2023-05-10T01:16:48;100420.03;;;10.69;67.90
61786;BME280;47692;53.714;11.372;2023-05-10T01:19:22;100425.19;;;10.70;68.08
61786;BME280;47692;53.714;11.372;2023-05-10T01:33:01;100426.75;;;10.46;69.30
61786;BME280;47692;53.714;11.372;2023-05-10T01:35:38;100423.22;;;10.47;69.14
61786;BME280;47692;53.714;11.372;2023-05-10T01:41:15;100419.81;;;10.45;69.40
61786;BME280;47692;53.714;11.372;2023-05-10T01:44:01;100412.97;;;10.41;69.79
61786;BME280;47692;53.714;11.372;2023-05-10T01:46:35;100409.53;;;10.39;69.55
61786;BME280;47692;53.714;11.372;2023-05-10T01:49:03;100418.25;;;10.38;69.58
61786;BME280;47692;53.714;11.372;2023-05-10T01:51:42;100408.69;;;10.37;70.14
61786;BME280;47692;53.714;11.372;2023-05-10T01:54:11;100412.97;;;10.41;70.04
61786;BME280;47692;53.714;11.372;2023-05-10T01:56:39;100415.69;;;10.36;70.03
61786;BME280;47692;53.714;11.372;2023-05-10T01:59:11;100413.09;;;10.34;70.51
61786;BME280;47692;53.714;11.372;2023-05-10T02:01:39;100408.88;;;10.29;70.25
61786;BME280;47692;53.714;11.372;2023-05-10T02:04:07;100410.47;;;10.34;70.74
61786;BME280;47692;53.714;11.372;2023-05-10T02:06:34;100397.50;;;10.31;70.30
61786;BME280;47692;53.714;11.372;2023-05-10T02:09:01;100398.44;;;10.29;70.73
61786;BME280;47692;53.714;11.372;2023-05-10T02:11:28;100406.38;;;10.26;70.81
61786;BME280;47692;53.714;11.372;2023-05-10T02:13:55;100408.19;;;10.22;70.39
61786;BME280;47692;53.714;11.372;2023-05-10T02:16:23;100409.94;;;10.22;70.92
61786;BME280;47692;53.714;11.372;2023-05-10T02:18:51;100410.06;;;10.17;70.89
61786;BME280;47692;53.714;11.372;2023-05-10T02:21:17;100411.91;;;10.13;70.76
61786;BME280;47692;53.714;11.372;2023-05-10T02:23:44;100411.91;;;10.12;71.07
61786;BME280;47692;53.714;11.372;2023-05-10T02:26:11;100407.63;;;10.11;71.37
61786;BME280;47692;53.714;11.372;2023-05-10T02:28:39;100401.63;;;10.06;71.31
61786;BME280;47692;53.714;11.372;2023-05-10T02:31:05;100400.03;;;10.01;70.92
61786;BME280;47692;53.714;11.372;2023-05-10T02:33:32;100398.25;;;10.03;71.31
61786;BME280;47692;53.714;11.372;2023-05-10T02:35:58;100406.94;;;10.02;71.25
61786;BME280;47692;53.714;11.372;2023-05-10T02:38:25;100403.59;;;9.97;71.18
61786;BME280;47692;53.714;11.372;2023-05-10T02:40:51;100402.72;;;9.98;71.69
61786;BME280;47692;53.714;11.372;2023-05-10T02:43:18;100402.81;;;9.94;71.95
61786;BME280;47692;53.714;11.372;2023-05-10T02:45:46;100400.25;;;9.92;72.14
61786;BME280;47692;53.714;11.372;2023-05-10T02:48:12;100401.16;;;9.91;72.15
61786;BME280;47692;53.714;11.372;2023-05-10T02:50:43;100402.09;;;9.87;72.74
61786;BME280;47692;53.714;11.372;2023-05-10T02:53:15;100398.75;;;9.82;72.97
61786;BME280;47692;53.714;11.372;2023-05-10T02:55:45;100403.97;;;9.82;73.13
61786;BME280;47692;53.714;11.372;2023-05-10T02:58:14;100398.84;;;9.79;73.32
61786;BME280;47692;53.714;11.372;2023-05-10T03:00:39;100401.50;;;9.76;73.40
61786;BME280;47692;53.714;11.372;2023-05-10T03:03:04;100400.69;;;9.75;73.44
61786;BME280;47692;53.714;11.372;2023-05-10T03:05:30;100402.50;;;9.72;73.38
61786;BME280;47692;53.714;11.372;2023-05-10T03:07:56;100399.06;;;9.69;73.84
61786;BME280;47692;53.714;11.372;2023-05-10T03:10:27;100404.22;;;9.73;74.16
61786;BME280;47692;53.714;11.372;2023-05-10T03:16:14;100397.38;;;9.68;73.91
61786;BME280;47692;53.714;11.372;2023-05-10T03:19:02;100397.38;;;9.68;74.17
61786;BME280;47692;53.714;11.372;2023-05-10T03:21:31;100385.22;;;9.67;74.08
61786;BME280;47692;53.714;11.372;2023-05-10T03:24:16;100395.66;;;9.66;73.80
61786;BME280;47692;53.714;11.372;2023-05-10T03:26:44;100390.53;;;9.63;74.28
61786;BME280;47692;53.714;11.372;2023-05-10T03:29:12;100387.19;;;9.58;74.48
61786;BME280;47692;53.714;11.372;2023-05-10T03:31:38;100390.66;;;9.58;74.29
61786;BME280;47692;53.714;11.372;2023-05-10T03:34:03;100390.59;;;9.61;74.52
61786;BME280;47692;53.714;11.372;2023-05-10T03:36:29;100394.09;;;9.60;74.76
61786;BME280;47692;53.714;11.372;2023-05-10T03:38:54;100388.97;;;9.56;75.11
61786;BME280;47692;53.714;11.372;2023-05-10T03:41:19;100394.22;;;9.54;75.42
61786;BME280;47692;53.714;11.372;2023-05-10T03:43:45;100395.13;;;9.53;75.70
61786;BME280;47692;53.714;11.372;2023-05-10T03:46:11;100383.84;;;9.51;75.95
61786;BME280;47692;53.714;11.372;2023-05-10T03:48:36;100384.69;;;9.53;75.94
61786;BME280;47692;53.714;11.372;2023-05-10T03:51:01;100395.16;;;9.51;75.90
61786;BME280;47692;53.714;11.372;2023-05-10T03:53:27;100402.09;;;9.52;75.78
61786;BME280;47692;53.714;11.372;2023-05-10T03:55:52;100392.44;;;9.56;75.38
61786;BME280;47692;53.714;11.372;2023-05-10T03:58:18;100397.56;;;9.59;75.46
61786;BME280;47692;53.714;11.372;2023-05-10T04:00:43;100399.28;;;9.60;75.75
61786;BME280;47692;53.714;11.372;2023-05-10T04:03:10;100395.72;;;9.64;75.79
61786;BME280;47692;53.714;11.372;2023-05-10T04:05:36;100396.59;;;9.65;75.48
61786;BME280;47692;53.714;11.372;2023-05-10T04:08:02;100389.59;;;9.65;75.54
61786;BME280;47692;53.714;11.372;2023-05-10T04:10:27;100390.44;;;9.67;75.48
61786;BME280;47692;53.714;11.372;2023-05-10T04:12:53;100393.00;;;9.69;75.38
61786;BME280;47692;53.714;11.372;2023-05-10T04:15:18;100395.66;;;9.67;75.50
61786;BME280;47692;53.714;11.372;2023-05-10T04:17:44;100385.88;;;9.76;75.22
61786;BME280;47692;53.714;11.372;2023-05-10T04:20:10;100389.41;;;9.75;74.80
61786;BME280;47692;53.714;11.372;2023-05-10T04:22:35;100386.72;;;9.78;75.06
61786;BME280;47692;53.714;11.372;2023-05-10T04:25:01;100390.97;;;9.80;74.74
61786;BME280;47692;53.714;11.372;2023-05-10T04:27:26;100375.28;;;9.83;74.51
61786;BME280;47692;53.714;11.372;2023-05-10T04:29:52;100377.75;;;9.88;74.29
61786;BME280;47692;53.714;11.372;2023-05-10T04:32:17;100384.56;;;9.94;74.46
61786;BME280;47692;53.714;11.372;2023-05-10T04:34:43;100382.66;;;10.00;74.56
61786;BME280;47692;53.714;11.372;2023-05-10T04:37:09;100376.53;;;10.01;74.51
61786;BME280;47692;53.714;11.372;2023-05-10T04:39:34;100378.16;;;10.07;74.49
61786;BME280;47692;53.714;11.372;2023-05-10T04:42:00;100380.63;;;10.12;74.43
61786;BME280;47692;53.714;11.372;2023-05-10T04:44:28;100382.28;;;10.16;73.86
61786;BME280;47692;53.714;11.372;2023-05-10T04:46:53;100374.34;;;10.19;73.91
61786;BME280;47692;53.714;11.372;2023-05-10T04:49:18;100375.91;;;10.26;73.34
61786;BME280;47692;53.714;11.372;2023-05-10T04:51:44;100373.28;;;10.26;73.51
61786;BME280;47692;53.714;11.372;2023-05-10T04:54:09;100369.69;;;10.30;73.32
61786;BME280;47692;53.714;11.372;2023-05-10T04:56:35;100374.78;;;10.37;73.75
61786;BME280;47692;53.714;11.372;2023-05-10T04:59:00;100371.19;;;10.41;73.51
61786;BME280;47692;53.714;11.372;2023-05-10T05:01:26;100376.25;;;10.47;72.84
61786;BME280;47692;53.714;11.372;2023-05-10T05:03:51;100378.75;;;10.50;73.35
61786;BME280;47692;53.714;11.372;2023-05-10T05:06:18;100380.38;;;10.56;73.22
61786;BME280;47692;53.714;11.372;2023-05-10T05:08:43;100386.25;;;10.62;73.11
61786;BME280;47692;53.714;11.372;2023-05-10T05:11:08;100387.88;;;10.66;72.53
61786;BME280;47692;53.714;11.372;2023-05-10T05:13:34;100391.13;;;10.75;72.75
61786;BME280;47692;53.714;11.372;2023-05-10T05:16:01;100393.63;;;10.79;72.26
61786;BME280;47692;53.714;11.372;2023-05-10T05:18:26;100401.28;;;10.84;72.28
61786;BME280;47692;53.714;11.372;2023-05-10T05:20:51;100388.88;;;10.92;72.16
61786;BME280;47692;53.714;11.372;2023-05-10T05:23:17;100397.41;;;10.99;72.36
61786;BME280;47692;53.714;11.372;2023-05-10T05:25:43;100401.56;;;11.05;71.56
61786;BME280;47692;53.714;11.372;2023-05-10T05:28:09;100394.31;;;11.14;72.03
61786;BME280;47692;53.714;11.372;2023-05-10T05:30:34;100392.41;;;11.20;71.90
61786;BME280;47692;53.714;11.372;2023-05-10T05:32:59;100388.72;;;11.27;72.02
61786;BME280;47692;53.714;11.372;2023-05-10T05:35:24;100384.06;;;11.37;71.54
61786;BME280;47692;53.714;11.372;2023-05-10T05:37:50;100376.94;;;11.42;71.34
61786;BME280;47692;53.714;11.372;2023-05-10T05:40:15;100378.44;;;11.49;71.12
61786;BME280;47692;53.714;11.372;2023-05-10T05:42:40;100379.16;;;11.54;70.69
61786;BME280;47692;53.714;11.372;2023-05-10T05:45:06;100385.00;;;11.62;71.00
61786;BME280;47692;53.714;11.372;2023-05-10T05:47:33;100379.56;;;11.69;70.41
61786;BME280;47692;53.714;11.372;2023-05-10T05:49:59;100384.81;;;11.69;70.03
61786;BME280;47692;53.714;11.372;2023-05-10T05:52:24;100378.34;;;11.79;69.68
61786;BME280;47692;53.714;11.372;2023-05-10T05:54:50;100382.38;;;11.89;70.60
61786;BME280;47692;53.714;11.372;2023-05-10T05:57:15;100386.63;;;11.92;70.44
61786;BME280;47692;53.714;11.372;2023-05-10T05:59:40;100390.84;;;11.98;69.75
61786;BME280;47692;53.714;11.372;2023-05-10T06:02:09;100389.00;;;12.01;69.80
61786;BME280;47692;53.714;11.372;2023-05-10T06:04:35;100383.47;;;12.09;69.39
61786;BME280;47692;53.714;11.372;2023-05-10T06:07:00;100386.78;;;12.14;68.27
61786;BME280;47692;53.714;11.372;2023-05-10T06:09:25;100386.53;;;12.22;68.60
61786;BME280;47692;53.714;11.372;2023-05-10T06:11:50;100378.56;;;12.25;67.94
61786;BME280;47692;53.714;11.372;2023-05-10T06:14:16;100372.47;;;12.24;68.29
61786;BME280;47692;53.714;11.372;2023-05-10T06:16:41;100370.56;;;12.30;67.70
61786;BME280;47692;53.714;11.372;2023-05-10T06:19:06;100372.00;;;12.38;67.91
61786;BME280;47692;53.714;11.372;2023-05-10T06:21:32;100372.56;;;12.47;68.15
61786;BME280;47692;53.714;11.372;2023-05-10T06:23:57;100371.38;;;12.55;67.93
61786;BME280;47692;53.714;11.372;2023-05-10T06:26:22;100369.44;;;12.60;67.24
61786;BME280;47692;53.714;11.372;2023-05-10T06:28:48;100370.19;;;12.64;67.70
61786;BME280;47692;53.714;11.372;2023-05-10T06:31:13;100368.97;;;12.73;67.52
61786;BME280;47692;53.714;11.372;2023-05-10T06:33:38;100364.38;;;12.80;67.54
61786;BME280;47692;53.714;11.372;2023-05-10T06:36:04;100365.66;;;12.91;67.35
61786;BME280;47692;53.714;11.372;2023-05-10T06:38:29;100371.47;;;13.00;67.32
61786;BME280;47692;53.714;11.372;2023-05-10T06:40:55;100367.59;;;13.10;67.42
61786;BME280;47692;53.714;11.372;2023-05-10T06:43:20;100365.63;;;13.15;67.68
61786;BME280;47692;53.714;11.372;2023-05-10T06:45:46;100372.25;;;13.25;66.66
61786;BME280;47692;53.714;11.372;2023-05-10T06:48:12;100367.50;;;13.35;66.55
61786;BME280;47692;53.714;11.372;2023-05-10T06:50:37;100358.53;;;13.41;65.57
61786;BME280;47692;53.714;11.372;2023-05-10T06:53:03;100368.69;;;13.50;66.33
61786;BME280;47692;53.714;11.372;2023-05-10T06:55:28;100364.75;;;13.61;66.88
61786;BME280;47692;53.714;11.372;2023-05-10T06:57:54;100368.59;;;13.74;66.34
61786;BME280;47692;53.714;11.372;2023-05-10T07:00:20;100372.34;;;13.89;66.06
61786;BME280;47692;53.714;11.372;2023-05-10T07:02:45;100367.81;;;13.93;66.16
61786;BME280;47692;53.714;11.372;2023-05-10T07:05:11;100369.84;;;14.06;65.97
61786;BME280;47692;53.714;11.372;2023-05-10T07:07:37;100357.28;;;14.13;64.01
61786;BME280;47692;53.714;11.372;2023-05-10T07:10:03;100360.72;;;14.15;64.13
61786;BME280;47692;53.714;11.372;2023-05-10T07:12:28;100359.53;;;14.22;64.50
61786;BME280;47692;53.714;11.372;2023-05-10T07:14:53;100351.16;;;14.33;64.85
61786;BME280;47692;53.714;11.372;2023-05-10T07:17:19;100358.09;;;14.36;63.81
61786;BME280;47692;53.714;11.372;2023-05-10T07:19:44;100366.88;;;14.35;63.56
61786;BME280;47692;53.714;11.372;2023-05-10T07:22:10;100361.47;;;14.38;63.88
61786;BME280;47692;53.714;11.372;2023-05-10T07:24:35;100359.00;;;14.35;62.89
61786;BME280;47692;53.714;11.372;2023-05-10T07:27:00;100363.34;;;14.36;62.48
61786;BME280;47692;53.714;11.372;2023-05-10T07:29:26;100362.13;;;14.43;62.93
61786;BME280;47692;53.714;11.372;2023-05-10T07:31:51;100356.75;;;14.46;62.75
61786;BME280;47692;53.714;11.372;2023-05-10T07:34:17;100366.25;;;14.49;62.33
61786;BME280;47692;53.714;11.372;2023-05-10T07:36:42;100371.34;;;14.52;62.57
61786;BME280;47692;53.714;11.372;2023-05-10T07:39:07;100368.81;;;14.50;62.14
61786;BME280;47692;53.714;11.372;2023-05-10T07:41:33;100365.00;;;14.58;62.69
61786;BME280;47692;53.714;11.372;2023-05-10T07:43:58;100368.94;;;14.68;62.68
61786;BME280;47692;53.714;11.372;2023-05-10T07:46:23;100359.06;;;14.73;62.38
61786;BME280;47692;53.714;11.372;2023-05-10T07:48:49;100359.84;;;14.75;62.50
61786;BME280;47692;53.714;11.372;2023-05-10T07:51:14;100371.78;;;14.82;62.78
61786;BME280;47692;53.714;11.372;2023-05-10T07:53:39;100359.91;;;14.93;62.43
61786;BME280;47692;53.714;11.372;2023-05-10T07:56:25;100360.88;;;15.09;62.38
61786;BME280;47692;53.714;11.372;2023-05-10T07:59:01;100364.03;;;15.17;62.12
61786;BME280;47692;53.714;11.372;2023-05-10T08:01:30;100360.88;;;15.28;62.57
61786;BME280;47692;53.714;11.372;2023-05-10T08:03:55;100366.69;;;15.35;62.36
61786;BME280;47692;53.714;11.372;2023-05-10T08:06:20;100359.28;;;15.43;62.20
61786;BME280;47692;53.714;11.372;2023-05-10T08:08:47;100367.41;;;15.56;61.91
61786;BME280;47692;53.714;11.372;2023-05-10T08:11:19;100357.69;;;15.58;60.23
61786;BME280;47692;53.714;11.372;2023-05-10T08:13:46;100360.44;;;15.55;60.72
61786;BME280;47692;53.714;11.372;2023-05-10T08:16:11;100362.25;;;15.72;62.68
61786;BME280;47692;53.714;11.372;2023-05-10T08:18:37;100361.53;;;15.88;61.23
61786;BME280;47692;53.714;11.372;2023-05-10T08:21:03;100368.03;;;15.98;61.20
61786;BME280;47692;53.714;11.372;2023-05-10T08:23:28;100369.84;;;16.13;61.22
61786;BME280;47692;53.714;11.372;2023-05-10T08:25:53;100369.41;;;16.23;59.52
61786;BME280;47692;53.714;11.372;2023-05-10T08:28:19;100359.19;;;16.17;59.39
61786;BME280;47692;53.714;11.372;2023-05-10T08:30:44;100365.13;;;16.20;59.54
61786;BME280;47692;53.714;11.372;2023-05-10T08:33:10;100363.25;;;16.22;59.29
61786;BME280;47692;53.714;11.372;2023-05-10T08:35:35;100361.31;;;16.26;59.76
61786;BME280;47692;53.714;11.372;2023-05-10T08:38:00;100363.13;;;16.25;60.60
61786;BME280;47692;53.714;11.372;2023-05-10T08:40:26;100355.50;;;16.37;59.29
61786;BME280;47692;53.714;11.372;2023-05-10T08:43:11;100360.34;;;16.44;59.41
61786;BME280;47692;53.714;11.372;2023-05-10T08:45:47;100366.69;;;16.58;59.37
61786;BME280;47692;53.714;11.372;2023-05-10T08:48:15;100370.69;;;16.65;58.99
61786;BME280;47692;53.714;11.372;2023-05-10T08:50:41;100362.53;;;16.70;59.21
61786;BME280;47692;53.714;11.372;2023-05-10T08:53:12;100371.88;;;16.75;58.54
61786;BME280;47692;53.714;11.372;2023-05-10T08:55:38;100372.94;;;16.89;59.55
61786;BME280;47692;53.714;11.372;2023-05-10T08:58:05;100372.78;;;16.92;58.02
61786;BME280;47692;53.714;11.372;2023-05-10T09:00:31;100372.09;;;17.04;59.83
61786;BME280;47692;53.714;11.372;2023-05-10T09:03:00;100373.13;;;17.18;60.03
61786;BME280;47692;53.714;11.372;2023-05-10T09:05:26;100380.59;;;17.25;58.10
61786;BME280;47692;53.714;11.372;2023-05-10T09:07:52;100375.50;;;17.22;58.30
61786;BME280;47692;53.714;11.372;2023-05-10T09:10:19;100385.19;;;17.22;57.48
61786;BME280;47692;53.714;11.372;2023-05-10T09:12:45;100373.66;;;17.24;56.28
61786;BME280;47692;53.714;11.372;2023-05-10T09:15:11;100381.13;;;17.00;56.19
61786;BME280;47692;53.714;11.372;2023-05-10T09:17:38;100392.13;;;17.08;57.19
61786;BME280;47692;53.714;11.372;2023-05-10T09:20:05;100388.94;;;17.18;56.67
61786;BME280;47692;53.714;11.372;2023-05-10T09:22:31;100393.13;;;17.22;57.42
61786;BME280;47692;53.714;11.372;2023-05-10T09:25:07;100397.63;;;17.36;58.88
61786;BME280;47692;53.714;11.372;2023-05-10T09:27:33;100393.28;;;17.51;57.74
61786;BME280;47692;53.714;11.372;2023-05-10T09:29:59;100387.72;;;17.55;56.42
61786;BME280;47692;53.714;11.372;2023-05-10T09:32:46;100395.25;;;17.47;56.36
61786;BME280;47692;53.714;11.372;2023-05-10T09:35:20;100387.56;;;17.58;58.22
61786;BME280;47692;53.714;11.372;2023-05-10T09:37:48;100387.88;;;17.68;57.52
61786;BME280;47692;53.714;11.372;2023-05-10T09:40:19;100395.03;;;17.66;57.51
61786;BME280;47692;53.714;11.372;2023-05-10T09:42:59;100395.34;;;17.76;58.73
61786;BME280;47692;53.714;11.372;2023-05-10T09:45:27;100391.06;;;17.89;58.37
61786;BME280;47692;53.714;11.372;2023-05-10T09:47:53;100393.28;;;17.97;57.50
61786;BME280;47692;53.714;11.372;2023-05-10T09:50:19;100387.81;;;18.00;57.96
61786;BME280;47692;53.714;11.372;2023-05-10T09:52:53;100396.91;;;18.11;57.95
61786;BME280;47692;53.714;11.372;2023-05-10T09:55:23;100391.25;;;18.31;57.77
61786;BME280;47692;53.714;11.372;2023-05-10T09:57:49;100387.84;;;18.44;56.99
61786;BME280;47692;53.714;11.372;2023-05-10T10:00:23;100389.19;;;18.36;55.56
61786;BME280;47692;53.714;11.372;2023-05-10T10:02:59;100396.63;;;18.30;56.22
61786;BME280;47692;53.714;11.372;2023-05-10T10:05:32;100398.72;;;18.39;56.04
61786;BME280;47692;53.714;11.372;2023-05-10T10:07:58;100399.88;;;18.49;56.36
61786;BME280;47692;53.714;11.372;2023-05-10T10:10:24;100402.47;;;18.35;55.51
61786;BME280;47692;53.714;11.372;2023-05-10T10:12:50;100388.44;;;18.49;56.90
61786;BME280;47692;53.714;11.372;2023-05-10T10:15:16;100396.94;;;18.68;55.54
61786;BME280;47692;53.714;11.372;2023-05-10T10:17:43;100392.47;;;18.83;55.39
61786;BME280;47692;53.714;11.372;2023-05-10T10:20:09;100395.41;;;19.08;57.82
61786;BME280;47692;53.714;11.372;2023-05-10T10:22:36;100391.03;;;19.21;54.26
61786;BME280;47692;53.714;11.372;2023-05-10T10:25:02;100389.50;;;19.31;56.57
61786;BME280;47692;53.714;11.372;2023-05-10T10:27:45;100393.84;;;19.32;55.00
61786;BME280;47692;53.714;11.372;2023-05-10T10:30:28;100400.44;;;19.40;55.78
61786;BME280;47692;53.714;11.372;2023-05-10T10:36:02;100390.69;;;19.40;55.16
61786;BME280;47692;53.714;11.372;2023-05-10T10:57:20;100400.25;;;19.83;54.23
61786;BME280;47692;53.714;11.372;2023-05-10T10:59:49;100399.69;;;19.78;54.38
61786;BME280;47692;53.714;11.372;2023-05-10T11:04:59;100388.97;;;19.94;53.58
61786;BME280;47692;53.714;11.372;2023-05-10T11:07:26;100393.00;;;19.99;54.54
61786;BME280;47692;53.714;11.372;2023-05-10T11:09:51;100400.25;;;20.23;55.21
61786;BME280;47692;53.714;11.372;2023-05-10T11:12:17;100386.56;;;20.29;54.59
61786;BME280;47692;53.714;11.372;2023-05-10T11:14:42;100396.84;;;20.47;55.13
61786;BME280;47692;53.714;11.372;2023-05-10T11:17:27;100393.66;;;20.55;55.95
61786;BME280;47692;53.714;11.372;2023-05-10T11:20:09;100395.56;;;20.40;53.79
61786;BME280;47692;53.714;11.372;2023-05-10T11:22:49;100389.09;;;20.44;54.73
61786;BME280;47692;53.714;11.372;2023-05-10T11:25:16;100391.31;;;20.37;54.59
61786;BME280;47692;53.714;11.372;2023-05-10T11:27:41;100391.75;;;20.18;53.93
61786;BME280;47692;53.714;11.372;2023-05-10T11:30:08;100392.59;;;20.06;54.75
61786;BME280;47692;53.714;11.372;2023-05-10T11:32:39;100393.88;;;20.13;55.99
61786;BME280;47692;53.714;11.372;2023-05-10T11:35:08;100400.69;;;20.43;56.18
61786;BME280;47692;53.714;11.372;2023-05-10T11:37:34;100390.25;;;20.65;55.69
61786;BME280;47692;53.714;11.372;2023-05-10T11:40:00;100385.91;;;20.77;54.85
61786;BME280;47692;53.714;11.372;2023-05-10T11:42:27;100397.16;;;20.81;55.10
61786;BME280;47692;53.714;11.372;2023-05-10T11:44:52;100390.81;;;21.08;55.95
61786;BME280;47692;53.714;11.372;2023-05-10T11:47:18;100395.38;;;21.19;54.37
61786;BME280;47692;53.714;11.372;2023-05-10T11:49:44;100398.69;;;21.09;54.19
61786;BME280;47692;53.714;11.372;2023-05-10T11:52:10;100396.53;;;21.14;55.67
61786;BME280;47692;53.714;11.372;2023-05-10T11:54:46;100395.75;;;21.25;53.37
61786;BME280;47692;53.714;11.372;2023-05-10T11:57:15;100403.34;;;21.19;53.93
61786;BME280;47692;53.714;11.372;2023-05-10T11:59:41;100411.63;;;21.14;54.50
61786;BME280;47692;53.714;11.372;2023-05-10T12:02:06;100409.84;;;21.02;54.17
61786;BME280;47692;53.714;11.372;2023-05-10T12:04:31;100413.44;;;21.01;54.43
61786;BME280;47692;53.714;11.372;2023-05-10T12:06:57;100411.28;;;20.81;53.94
61786;BME280;47692;53.714;11.372;2023-05-10T12:09:22;100417.19;;;20.59;55.69
61786;BME280;47692;53.714;11.372;2023-05-10T12:11:48;100417.81;;;20.50;54.77
61786;BME280;47692;53.714;11.372;2023-05-10T12:14:13;100429.06;;;20.54;56.62
61786;BME280;47692;53.714;11.372;2023-05-10T12:16:43;100418.69;;;20.50;55.45
61786;BME280;47692;53.714;11.372;2023-05-10T12:19:08;100426.97;;;20.46;55.86
61786;BME280;47692;53.714;11.372;2023-05-10T12:21:33;100427.38;;;20.40;55.72
61786;BME280;47692;53.714;11.372;2023-05-10T12:24:01;100428.03;;;20.30;56.09
61786;BME280;47692;53.714;11.372;2023-05-10T12:26:27;100430.97;;;20.13;55.79
61786;BME280;47692;53.714;11.372;2023-05-10T12:29:11;100434.34;;;20.02;56.58
61786;BME280;47692;53.714;11.372;2023-05-10T12:31:54;100428.47;;;19.84;56.72
61786;BME280;47692;53.714;11.372;2023-05-10T12:34:26;100429.22;;;19.72;57.30
61786;BME280;47692;53.714;11.372;2023-05-10T12:36:53;100431.22;;;19.68;57.26
61786;BME280;47692;53.714;11.372;2023-05-10T12:39:18;100432.69;;;19.59;57.67
61786;BME280;47692;53.714;11.372;2023-05-10T12:41:43;100439.81;;;19.44;57.10
61786;BME280;47692;53.714;11.372;2023-05-10T12:44:09;100449.75;;;19.41;58.24
61786;BME280;47692;53.714;11.372;2023-05-10T12:46:34;100444.06;;;19.47;58.81
61786;BME280;47692;53.714;11.372;2023-05-10T12:48:59;100447.47;;;19.49;59.43
61786;BME280;47692;53.714;11.372;2023-05-10T12:51:25;100449.84;;;19.53;59.73
61786;BME280;47692;53.714;11.372;2023-05-10T12:53:50;100455.38;;;19.63;59.04
61786;BME280;47692;53.714;11.372;2023-05-10T12:56:15;100457.16;;;19.63;58.35
61786;BME280;47692;53.714;11.372;2023-05-10T12:58:41;100465.97;;;19.63;58.02
61786;BME280;47692;53.714;11.372;2023-05-10T13:01:06;100471.16;;;19.37;56.55
61786;BME280;47692;53.714;11.372;2023-05-10T13:03:31;100469.09;;;19.14;56.48
61786;BME280;47692;53.714;11.372;2023-05-10T13:05:57;100469.09;;;18.99;57.02
61786;BME280;47692;53.714;11.372;2023-05-10T13:08:22;100473.84;;;18.94;57.89
61786;BME280;47692;53.714;11.372;2023-05-10T13:10:48;100476.06;;;18.86;57.74
61786;BME280;47692;53.714;11.372;2023-05-10T13:13:14;100481.16;;;18.74;57.37
61786;BME280;47692;53.714;11.372;2023-05-10T13:15:39;100484.38;;;18.65;57.73
61786;BME280;47692;53.714;11.372;2023-05-10T13:18:04;100482.09;;;18.59;57.62
61786;BME280;47692;53.714;11.372;2023-05-10T13:20:30;100485.94;;;18.53;58.32
61786;BME280;47692;53.714;11.372;2023-05-10T13:22:55;100490.66;;;18.48;58.62